sensor_id;sensor_type;location;lat;lon;timestamp;temperature;humidity
39019;DHT22;24786;51.984;5.872;2023-03-01T00:01:18;0.40;99.90
39019;DHT22;24786;51.984;5.872;2023-03-01T00:03:44;0.40;99.90
39019;DHT22;24786;51.984;5.872;2023-03-01T00:06:10;0.40;99.90
39019;DHT22;24786;51.984;5.872;2023-03-01T00:08:36;0.40;99.90
39019;DHT22;24786;51.984;5.872;2023-03-01T00:11:09;0.30;99.90
39019;DHT22;24786;51.984;5.872;2023-03-01T00:13:35;0.30;99.90
39019;DHT22;24786;51.984;5.872;2023-03-01T00:16:03;0.30;99.90
39019;DHT22;24786;51.984;5.872;2023-03-01T00:18:29;0.30;99.90
39019;DHT22;24786;51.984;5.872;2023-03-01T00:20:55;0.30;99.90
39019;DHT22;24786;51.984;5.872;2023-03-01T00:23:22;0.30;99.90
39019;DHT22;24786;51.984;5.872;2023-03-01T00:25:48;0.30;99.90
39019;DHT22;24786;51.984;5.872;2023-03-01T00:28:14;0.30;99.90
39019;DHT22;24786;51.984;5.872;2023-03-01T00:30:39;0.20;99.90
39019;DHT22;24786;51.984;5.872;2023-03-01T00:33:05;0.20;99.90
39019;DHT22;24786;51.984;5.872;2023-03-01T00:35:32;0.30;99.90
39019;DHT22;24786;51.984;5.872;2023-03-01T00:37:58;0.30;99.90
39019;DHT22;24786;51.984;5.872;2023-03-01T00:40:24;0.30;99.90
39019;DHT22;24786;51.984;5.872;2023-03-01T00:42:50;0.30;99.90
39019;DHT22;24786;51.984;5.872;2023-03-01T00:45:17;0.30;99.90
39019;DHT22;24786;51.984;5.872;2023-03-01T00:47:43;0.30;99.90
39019;DHT22;24786;51.984;5.872;2023-03-01T00:50:09;0.30;99.90
39019;DHT22;24786;51.984;5.872;2023-03-01T00:52:34;0.30;99.90
39019;DHT22;24786;51.984;5.872;2023-03-01T00:55:00;0.30;99.90
39019;DHT22;24786;51.984;5.872;2023-03-01T00:57:26;0.30;99.90
39019;DHT22;24786;51.984;5.872;2023-03-01T00:59:51;0.30;99.90
39019;DHT22;24786;51.984;5.872;2023-03-01T01:02:18;0.30;99.90
39019;DHT22;24786;51.984;5.872;2023-03-01T01:04:44;0.30;99.90
39019;DHT22;24786;51.984;5.872;2023-03-01T01:07:10;0.20;99.90
39019;DHT22;24786;51.984;5.872;2023-03-01T01:09:35;0.30;99.90
39019;DHT22;24786;51.984;5.872;2023-03-01T01:12:02;0.30;99.90
39019;DHT22;24786;51.984;5.872;2023-03-01T01:14:28;0.30;99.90
39019;DHT22;24786;51.984;5.872;2023-03-01T01:16:53;0.20;99.90
39019;DHT22;24786;51.984;5.872;2023-03-01T01:19:19;0.20;99.90
39019;DHT22;24786;51.984;5.872;2023-03-01T01:21:45;0.20;99.90
39019;DHT22;24786;51.984;5.872;2023-03-01T01:24:11;0.20;99.90
39019;DHT22;24786;51.984;5.872;2023-03-01T01:26:37;0.20;99.90
39019;DHT22;24786;51.984;5.872;2023-03-01T01:29:04;0.20;99.90
39019;DHT22;24786;51.984;5.872;2023-03-01T01:31:31;0.20;99.90
39019;DHT22;24786;51.984;5.872;2023-03-01T01:33:58;0.20;99.90
39019;DHT22;24786;51.984;5.872;2023-03-01T01:36:24;0.10;99.90
39019;DHT22;24786;51.984;5.872;2023-03-01T01:38:50;0.10;99.90
39019;DHT22;24786;51.984;5.872;2023-03-01T01:41:17;0.10;99.90
39019;DHT22;24786;51.984;5.872;2023-03-01T01:43:46;0.10;99.90
39019;DHT22;24786;51.984;5.872;2023-03-01T01:48:53;0.10;99.90
39019;DHT22;24786;51.984;5.872;2023-03-01T01:51:24;0.10;99.90
39019;DHT22;24786;51.984;5.872;2023-03-01T01:53:54;0.10;99.90
39019;DHT22;24786;51.984;5.872;2023-03-01T01:56:21;0.10;99.90
39019;DHT22;24786;51.984;5.872;2023-03-01T01:58:49;0.10;99.90
39019;DHT22;24786;51.984;5.872;2023-03-01T02:01:14;0.10;99.90
39019;DHT22;24786;51.984;5.872;2023-03-01T02:03:43;0.10;99.90
39019;DHT22;24786;51.984;5.872;2023-03-01T02:08:37;0.10;99.90
39019;DHT22;24786;51.984;5.872;2023-03-01T02:11:05;0.10;99.90
39019;DHT22;24786;51.984;5.872;2023-03-01T02:13:32;0.10;99.90
39019;DHT22;24786;51.984;5.872;2023-03-01T02:15:58;0.10;99.90
39019;DHT22;24786;51.984;5.872;2023-03-01T02:18:24;0.10;99.90
39019;DHT22;24786;51.984;5.872;2023-03-01T02:23:22;0.00;99.90
39019;DHT22;24786;51.984;5.872;2023-03-01T02:28:50;0.10;99.90
39019;DHT22;24786;51.984;5.872;2023-03-01T02:31:18;0.00;99.90
39019;DHT22;24786;51.984;5.872;2023-03-01T02:34:04;0.00;99.90
39019;DHT22;24786;51.984;5.872;2023-03-01T02:36:35;0.10;99.90
39019;DHT22;24786;51.984;5.872;2023-03-01T02:39:03;0.10;99.90
39019;DHT22;24786;51.984;5.872;2023-03-01T02:41:33;0.10;99.90
39019;DHT22;24786;51.984;5.872;2023-03-01T02:44:00;0.10;99.90
39019;DHT22;24786;51.984;5.872;2023-03-01T02:46:26;0.10;99.90
39019;DHT22;24786;51.984;5.872;2023-03-01T02:48:56;0.10;99.90
39019;DHT22;24786;51.984;5.872;2023-03-01T02:51:34;0.10;99.90
39019;DHT22;24786;51.984;5.872;2023-03-01T02:56:47;0.10;99.90
39019;DHT22;24786;51.984;5.872;2023-03-01T02:59:21;0.10;99.90
39019;DHT22;24786;51.984;5.872;2023-03-01T03:01:47;0.10;99.90
39019;DHT22;24786;51.984;5.872;2023-03-01T03:04:15;0.10;99.90
39019;DHT22;24786;51.984;5.872;2023-03-01T03:06:47;0.10;99.90
39019;DHT22;24786;51.984;5.872;2023-03-01T03:09:13;0.10;99.90
39019;DHT22;24786;51.984;5.872;2023-03-01T03:11:39;0.10;99.90
39019;DHT22;24786;51.984;5.872;2023-03-01T03:14:07;0.10;99.90
39019;DHT22;24786;51.984;5.872;2023-03-01T03:16:45;0.10;99.90
39019;DHT22;24786;51.984;5.872;2023-03-01T03:19:11;0.10;99.90
39019;DHT22;24786;51.984;5.872;2023-03-01T03:21:37;0.10;99.90
39019;DHT22;24786;51.984;5.872;2023-03-01T03:24:04;0.10;99.90
39019;DHT22;24786;51.984;5.872;2023-03-01T03:26:29;0.10;99.90
39019;DHT22;24786;51.984;5.872;2023-03-01T03:28:55;0.10;99.90
39019;DHT22;24786;51.984;5.872;2023-03-01T03:31:21;0.10;99.90
39019;DHT22;24786;51.984;5.872;2023-03-01T03:33:47;0.10;99.90
39019;DHT22;24786;51.984;5.872;2023-03-01T03:36:18;0.00;99.90
39019;DHT22;24786;51.984;5.872;2023-03-01T03:38:44;0.10;99.90
39019;DHT22;24786;51.984;5.872;2023-03-01T03:41:14;0.10;99.90
39019;DHT22;24786;51.984;5.872;2023-03-01T03:43:41;0.10;99.90
39019;DHT22;24786;51.984;5.872;2023-03-01T03:46:09;0.10;99.90
39019;DHT22;24786;51.984;5.872;2023-03-01T03:48:41;0.10;99.90
39019;DHT22;24786;51.984;5.872;2023-03-01T03:51:09;0.10;99.90
39019;DHT22;24786;51.984;5.872;2023-03-01T03:53:35;0.10;99.90
39019;DHT22;24786;51.984;5.872;2023-03-01T03:56:01;0.10;99.90
39019;DHT22;24786;51.984;5.872;2023-03-01T03:58:26;0.10;99.90
39019;DHT22;24786;51.984;5.872;2023-03-01T04:00:55;0.10;99.90
39019;DHT22;24786;51.984;5.872;2023-03-01T04:03:25;0.10;99.90
39019;DHT22;24786;51.984;5.872;2023-03-01T04:05:52;0.10;99.90
39019;DHT22;24786;51.984;5.872;2023-03-01T04:08:19;0.10;99.90
39019;DHT22;24786;51.984;5.872;2023-03-01T04:10:48;0.10;99.90
39019;DHT22;24786;51.984;5.872;2023-03-01T04:13:20;0.10;99.90
39019;DHT22;24786;51.984;5.872;2023-03-01T04:15:48;0.10;99.90
39019;DHT22;24786;51.984;5.872;2023-03-01T04:18:15;0.10;99.90
39019;DHT22;24786;51.984;5.872;2023-03-01T04:20:42;0.10;99.90
39019;DHT22;24786;51.984;5.872;2023-03-01T04:23:11;0.10;99.90
39019;DHT22;24786;51.984;5.872;2023-03-01T04:25:45;0.10;99.90
39019;DHT22;24786;51.984;5.872;2023-03-01T04:28:11;0.00;99.90
39019;DHT22;24786;51.984;5.872;2023-03-01T04:30:38;0.00;99.90
39019;DHT22;24786;51.984;5.872;2023-03-01T04:33:09;0.00;99.90
39019;DHT22;24786;51.984;5.872;2023-03-01T04:35:35;0.00;99.90
39019;DHT22;24786;51.984;5.872;2023-03-01T04:38:02;0.00;99.90
39019;DHT22;24786;51.984;5.872;2023-03-01T04:40:28;0.00;99.90
39019;DHT22;24786;51.984;5.872;2023-03-01T04:42:53;0.00;99.90
39019;DHT22;24786;51.984;5.872;2023-03-01T04:45:19;0.00;99.90
39019;DHT22;24786;51.984;5.872;2023-03-01T04:47:46;-0.10;99.90
39019;DHT22;24786;51.984;5.872;2023-03-01T04:50:16;-0.10;99.90
39019;DHT22;24786;51.984;5.872;2023-03-01T04:52:43;-0.10;99.90
39019;DHT22;24786;51.984;5.872;2023-03-01T04:55:10;-0.10;99.90
39019;DHT22;24786;51.984;5.872;2023-03-01T04:57:36;-0.10;99.90
39019;DHT22;24786;51.984;5.872;2023-03-01T05:00:02;-0.10;99.90
39019;DHT22;24786;51.984;5.872;2023-03-01T05:02:55;-0.10;99.90
39019;DHT22;24786;51.984;5.872;2023-03-01T05:05:28;-0.10;99.90
39019;DHT22;24786;51.984;5.872;2023-03-01T05:07:56;-0.20;99.90
39019;DHT22;24786;51.984;5.872;2023-03-01T05:10:23;-0.20;99.90
39019;DHT22;24786;51.984;5.872;2023-03-01T05:12:49;-0.20;99.90
39019;DHT22;24786;51.984;5.872;2023-03-01T05:15:15;-0.20;99.90
39019;DHT22;24786;51.984;5.872;2023-03-01T05:17:40;-0.10;99.90
39019;DHT22;24786;51.984;5.872;2023-03-01T05:20:06;-0.20;99.90
39019;DHT22;24786;51.984;5.872;2023-03-01T05:22:35;-0.20;99.90
39019;DHT22;24786;51.984;5.872;2023-03-01T05:25:01;-0.20;99.90
39019;DHT22;24786;51.984;5.872;2023-03-01T05:27:27;-0.20;99.90
39019;DHT22;24786;51.984;5.872;2023-03-01T05:29:52;-0.20;99.90
39019;DHT22;24786;51.984;5.872;2023-03-01T05:32:18;-0.20;99.90
39019;DHT22;24786;51.984;5.872;2023-03-01T05:34:43;-0.20;99.90
39019;DHT22;24786;51.984;5.872;2023-03-01T05:37:11;-0.20;99.90
39019;DHT22;24786;51.984;5.872;2023-03-01T05:39:37;-0.20;99.90
39019;DHT22;24786;51.984;5.872;2023-03-01T05:42:03;-0.20;99.90
39019;DHT22;24786;51.984;5.872;2023-03-01T05:44:29;-0.20;99.90
39019;DHT22;24786;51.984;5.872;2023-03-01T05:46:55;-0.20;99.90
39019;DHT22;24786;51.984;5.872;2023-03-01T05:49:22;-0.20;99.90
39019;DHT22;24786;51.984;5.872;2023-03-01T05:51:50;-0.20;99.90
39019;DHT22;24786;51.984;5.872;2023-03-01T05:54:17;-0.20;99.90
39019;DHT22;24786;51.984;5.872;2023-03-01T05:56:44;-0.30;99.90
39019;DHT22;24786;51.984;5.872;2023-03-01T05:59:10;-0.30;99.90
39019;DHT22;24786;51.984;5.872;2023-03-01T06:01:36;-0.30;99.90
39019;DHT22;24786;51.984;5.872;2023-03-01T06:04:03;-0.30;99.90
39019;DHT22;24786;51.984;5.872;2023-03-01T06:06:28;-0.30;99.90
39019;DHT22;24786;51.984;5.872;2023-03-01T06:08:54;-0.30;99.90
39019;DHT22;24786;51.984;5.872;2023-03-01T06:11:20;-0.30;99.90
39019;DHT22;24786;51.984;5.872;2023-03-01T06:13:46;-0.30;99.90
39019;DHT22;24786;51.984;5.872;2023-03-01T06:16:13;-0.30;99.90
39019;DHT22;24786;51.984;5.872;2023-03-01T06:18:39;-0.40;99.90
39019;DHT22;24786;51.984;5.872;2023-03-01T06:21:05;-0.40;99.90
39019;DHT22;24786;51.984;5.872;2023-03-01T06:23:34;-0.40;99.90
39019;DHT22;24786;51.984;5.872;2023-03-01T06:26:00;-0.40;99.90
39019;DHT22;24786;51.984;5.872;2023-03-01T06:28:26;-0.40;99.90
39019;DHT22;24786;51.984;5.872;2023-03-01T06:30:52;-0.40;99.90
39019;DHT22;24786;51.984;5.872;2023-03-01T06:33:19;-0.40;99.90
39019;DHT22;24786;51.984;5.872;2023-03-01T06:35:49;-0.30;99.90
39019;DHT22;24786;51.984;5.872;2023-03-01T06:38:15;-0.30;99.90
39019;DHT22;24786;51.984;5.872;2023-03-01T06:40:43;-0.40;99.90
39019;DHT22;24786;51.984;5.872;2023-03-01T06:43:09;-0.30;99.90
39019;DHT22;24786;51.984;5.872;2023-03-01T06:45:34;-0.30;99.90
39019;DHT22;24786;51.984;5.872;2023-03-01T06:48:05;-0.30;99.90
39019;DHT22;24786;51.984;5.872;2023-03-01T06:50:31;-0.20;99.90
39019;DHT22;24786;51.984;5.872;2023-03-01T06:53:00;-0.20;99.90
39019;DHT22;24786;51.984;5.872;2023-03-01T06:55:25;-0.20;99.90
39019;DHT22;24786;51.984;5.872;2023-03-01T06:57:58;-0.30;99.90
39019;DHT22;24786;51.984;5.872;2023-03-01T07:00:25;-0.30;99.90
39019;DHT22;24786;51.984;5.872;2023-03-01T07:02:51;-0.30;99.90
39019;DHT22;24786;51.984;5.872;2023-03-01T07:05:17;-0.30;99.90
39019;DHT22;24786;51.984;5.872;2023-03-01T07:07:42;-0.30;99.90
39019;DHT22;24786;51.984;5.872;2023-03-01T07:10:09;-0.20;99.90
39019;DHT22;24786;51.984;5.872;2023-03-01T07:12:34;-0.20;99.90
39019;DHT22;24786;51.984;5.872;2023-03-01T07:15:00;-0.20;99.90
39019;DHT22;24786;51.984;5.872;2023-03-01T07:17:26;-0.20;99.90
39019;DHT22;24786;51.984;5.872;2023-03-01T07:19:51;-0.20;99.90
39019;DHT22;24786;51.984;5.872;2023-03-01T07:22:17;-0.20;99.90
39019;DHT22;24786;51.984;5.872;2023-03-01T07:24:42;-0.20;99.90
39019;DHT22;24786;51.984;5.872;2023-03-01T07:27:08;-0.10;99.90
39019;DHT22;24786;51.984;5.872;2023-03-01T07:29:34;-0.10;99.90
39019;DHT22;24786;51.984;5.872;2023-03-01T07:32:02;0.00;99.90
39019;DHT22;24786;51.984;5.872;2023-03-01T07:34:27;0.00;99.90
39019;DHT22;24786;51.984;5.872;2023-03-01T07:36:53;0.10;99.90
39019;DHT22;24786;51.984;5.872;2023-03-01T07:39:19;0.20;99.90
39019;DHT22;24786;51.984;5.872;2023-03-01T07:41:44;0.20;99.90
39019;DHT22;24786;51.984;5.872;2023-03-01T07:44:10;0.30;99.90
39019;DHT22;24786;51.984;5.872;2023-03-01T07:46:38;0.40;99.90
39019;DHT22;24786;51.984;5.872;2023-03-01T07:49:05;0.50;99.90
39019;DHT22;24786;51.984;5.872;2023-03-01T07:51:30;0.50;99.90
39019;DHT22;24786;51.984;5.872;2023-03-01T07:53:56;0.60;99.90
39019;DHT22;24786;51.984;5.872;2023-03-01T07:56:21;0.70;99.90
39019;DHT22;24786;51.984;5.872;2023-03-01T07:58:47;0.70;99.90
39019;DHT22;24786;51.984;5.872;2023-03-01T08:01:16;0.80;99.90
39019;DHT22;24786;51.984;5.872;2023-03-01T08:03:42;0.90;99.90
39019;DHT22;24786;51.984;5.872;2023-03-01T08:06:09;1.00;99.90
39019;DHT22;24786;51.984;5.872;2023-03-01T08:08:35;1.00;99.90
39019;DHT22;24786;51.984;5.872;2023-03-01T08:11:03;1.10;99.90
39019;DHT22;24786;51.984;5.872;2023-03-01T08:13:30;1.10;99.90
39019;DHT22;24786;51.984;5.872;2023-03-01T08:16:07;1.20;99.90
39019;DHT22;24786;51.984;5.872;2023-03-01T08:18:34;1.30;99.90
39019;DHT22;24786;51.984;5.872;2023-03-01T08:23:29;1.50;99.90
39019;DHT22;24786;51.984;5.872;2023-03-01T08:25:55;1.60;99.90
39019;DHT22;24786;51.984;5.872;2023-03-01T08:28:27;1.70;99.90
39019;DHT22;24786;51.984;5.872;2023-03-01T08:30:53;1.80;99.90
39019;DHT22;24786;51.984;5.872;2023-03-01T08:33:18;1.90;99.90
39019;DHT22;24786;51.984;5.872;2023-03-01T08:35:44;2.00;99.90
39019;DHT22;24786;51.984;5.872;2023-03-01T08:38:09;2.10;99.90
39019;DHT22;24786;51.984;5.872;2023-03-01T08:40:35;2.20;99.90
39019;DHT22;24786;51.984;5.872;2023-03-01T08:43:00;2.30;99.90
39019;DHT22;24786;51.984;5.872;2023-03-01T08:45:26;2.30;99.90
39019;DHT22;24786;51.984;5.872;2023-03-01T08:47:54;2.40;99.90
39019;DHT22;24786;51.984;5.872;2023-03-01T08:50:20;2.50;99.90
39019;DHT22;24786;51.984;5.872;2023-03-01T08:52:45;2.60;99.90
39019;DHT22;24786;51.984;5.872;2023-03-01T08:55:11;2.60;99.90
39019;DHT22;24786;51.984;5.872;2023-03-01T08:57:37;2.70;99.90
39019;DHT22;24786;51.984;5.872;2023-03-01T09:00:03;2.80;99.90
39019;DHT22;24786;51.984;5.872;2023-03-01T09:02:28;2.90;99.90
39019;DHT22;24786;51.984;5.872;2023-03-01T09:04:54;3.00;99.90
39019;DHT22;24786;51.984;5.872;2023-03-01T09:07:19;3.00;99.90
39019;DHT22;24786;51.984;5.872;2023-03-01T09:09:45;3.10;99.90
39019;DHT22;24786;51.984;5.872;2023-03-01T09:12:10;3.20;99.90
39019;DHT22;24786;51.984;5.872;2023-03-01T09:14:36;3.20;99.90
39019;DHT22;24786;51.984;5.872;2023-03-01T09:17:04;3.20;99.90
39019;DHT22;24786;51.984;5.872;2023-03-01T09:19:30;3.30;99.90
39019;DHT22;24786;51.984;5.872;2023-03-01T09:21:55;3.30;99.90
39019;DHT22;24786;51.984;5.872;2023-03-01T09:24:24;3.40;99.90
39019;DHT22;24786;51.984;5.872;2023-03-01T09:26:53;3.40;99.90
39019;DHT22;24786;51.984;5.872;2023-03-01T09:29:19;3.50;99.90
39019;DHT22;24786;51.984;5.872;2023-03-01T09:31:45;3.50;99.90
39019;DHT22;24786;51.984;5.872;2023-03-01T09:34:10;3.50;99.90
39019;DHT22;24786;51.984;5.872;2023-03-01T09:36:36;3.60;99.90
39019;DHT22;24786;51.984;5.872;2023-03-01T09:39:04;3.60;99.90
39019;DHT22;24786;51.984;5.872;2023-03-01T09:46:59;3.70;99.90
39019;DHT22;24786;51.984;5.872;2023-03-01T09:49:28;3.80;99.90
39019;DHT22;24786;51.984;5.872;2023-03-01T09:54:31;3.90;99.90
39019;DHT22;24786;51.984;5.872;2023-03-01T10:00:20;4.00;99.80
39019;DHT22;24786;51.984;5.872;2023-03-01T10:03:06;4.00;99.50
39019;DHT22;24786;51.984;5.872;2023-03-01T10:05:56;4.00;98.60
39019;DHT22;24786;51.984;5.872;2023-03-01T10:08:33;4.00;97.80
39019;DHT22;24786;51.984;5.872;2023-03-01T10:11:02;4.00;98.40
39019;DHT22;24786;51.984;5.872;2023-03-01T10:13:47;4.00;98.10
39019;DHT22;24786;51.984;5.872;2023-03-01T10:19:20;4.10;97.30
39019;DHT22;24786;51.984;5.872;2023-03-01T10:21:49;4.10;97.60
39019;DHT22;24786;51.984;5.872;2023-03-01T10:24:18;4.20;97.70
39019;DHT22;24786;51.984;5.872;2023-03-01T10:26:56;4.20;97.50
39019;DHT22;24786;51.984;5.872;2023-03-01T10:29:48;4.20;97.20
39019;DHT22;24786;51.984;5.872;2023-03-01T10:32:14;4.20;97.20
39019;DHT22;24786;51.984;5.872;2023-03-01T10:34:40;4.20;97.20
39019;DHT22;24786;51.984;5.872;2023-03-01T10:39:35;4.20;97.50
39019;DHT22;24786;51.984;5.872;2023-03-01T10:42:05;4.40;97.20
39019;DHT22;24786;51.984;5.872;2023-03-01T10:44:43;4.40;97.10
39019;DHT22;24786;51.984;5.872;2023-03-01T10:47:22;4.50;97.20
39019;DHT22;24786;51.984;5.872;2023-03-01T10:49:54;4.60;97.30
39019;DHT22;24786;51.984;5.872;2023-03-01T10:52:31;4.60;97.20
39019;DHT22;24786;51.984;5.872;2023-03-01T10:54:59;4.60;97.30
39019;DHT22;24786;51.984;5.872;2023-03-01T10:57:31;4.70;97.20
39019;DHT22;24786;51.984;5.872;2023-03-01T11:00:26;4.80;97.30
39019;DHT22;24786;51.984;5.872;2023-03-01T11:05:25;4.90;97.00
39019;DHT22;24786;51.984;5.872;2023-03-01T11:07:59;5.00;97.10
39019;DHT22;24786;51.984;5.872;2023-03-01T11:32:10;5.40;94.90
39019;DHT22;24786;51.984;5.872;2023-03-01T11:34:55;5.50;94.70
39019;DHT22;24786;51.984;5.872;2023-03-01T11:45:23;5.80;94.90
39019;DHT22;24786;51.984;5.872;2023-03-01T12:04:11;6.00;92.20
39019;DHT22;24786;51.984;5.872;2023-03-01T12:07:02;6.00;91.90
39019;DHT22;24786;51.984;5.872;2023-03-01T12:18:03;6.20;91.00
39019;DHT22;24786;51.984;5.872;2023-03-01T12:31:43;6.40;90.10
39019;DHT22;24786;51.984;5.872;2023-03-01T12:33:58;6.50;90.10
39019;DHT22;24786;51.984;5.872;2023-03-01T12:39:39;6.60;90.10
39019;DHT22;24786;51.984;5.872;2023-03-01T12:42:30;6.70;90.00
39019;DHT22;24786;51.984;5.872;2023-03-01T12:48:31;6.80;88.70
39019;DHT22;24786;51.984;5.872;2023-03-01T12:51:01;6.80;88.30
39019;DHT22;24786;51.984;5.872;2023-03-01T12:53:35;6.80;88.80
39019;DHT22;24786;51.984;5.872;2023-03-01T12:56:21;6.80;88.60
39019;DHT22;24786;51.984;5.872;2023-03-01T12:59:16;6.90;88.90
39019;DHT22;24786;51.984;5.872;2023-03-01T13:02:02;7.00;89.10
39019;DHT22;24786;51.984;5.872;2023-03-01T13:07:23;7.10;87.90
39019;DHT22;24786;51.984;5.872;2023-03-01T13:17:48;7.10;87.50
39019;DHT22;24786;51.984;5.872;2023-03-01T13:20:17;7.10;88.30
39019;DHT22;24786;51.984;5.872;2023-03-01T13:22:45;7.20;88.20
39019;DHT22;24786;51.984;5.872;2023-03-01T13:25:18;7.20;87.10
39019;DHT22;24786;51.984;5.872;2023-03-01T13:27:45;7.20;85.50
39019;DHT22;24786;51.984;5.872;2023-03-01T13:35:54;7.10;84.60
39019;DHT22;24786;51.984;5.872;2023-03-01T13:38:47;7.10;85.60
39019;DHT22;24786;51.984;5.872;2023-03-01T13:41:15;7.20;84.50
39019;DHT22;24786;51.984;5.872;2023-03-01T13:43:43;7.20;84.00
39019;DHT22;24786;51.984;5.872;2023-03-01T13:46:20;7.20;84.70
39019;DHT22;24786;51.984;5.872;2023-03-01T13:48:50;7.20;85.30
39019;DHT22;24786;51.984;5.872;2023-03-01T13:51:23;7.20;84.00
39019;DHT22;24786;51.984;5.872;2023-03-01T13:53:50;7.20;83.40
39019;DHT22;24786;51.984;5.872;2023-03-01T13:58:53;7.10;84.40
39019;DHT22;24786;51.984;5.872;2023-03-01T14:01:29;7.20;84.50
39019;DHT22;24786;51.984;5.872;2023-03-01T14:03:55;7.20;84.20
39019;DHT22;24786;51.984;5.872;2023-03-01T14:06:26;7.20;84.40
39019;DHT22;24786;51.984;5.872;2023-03-01T14:09:14;7.30;84.80
39019;DHT22;24786;51.984;5.872;2023-03-01T14:12:16;7.40;84.50
39019;DHT22;24786;51.984;5.872;2023-03-01T14:15:04;7.40;84.50
39019;DHT22;24786;51.984;5.872;2023-03-01T14:28:47;7.40;84.30
39019;DHT22;24786;51.984;5.872;2023-03-01T14:31:36;7.40;84.30
39019;DHT22;24786;51.984;5.872;2023-03-01T14:34:03;7.20;84.20
39019;DHT22;24786;51.984;5.872;2023-03-01T14:36:33;7.20;84.30
39019;DHT22;24786;51.984;5.872;2023-03-01T14:38:59;7.20;84.30
39019;DHT22;24786;51.984;5.872;2023-03-01T14:41:34;7.20;84.20
39019;DHT22;24786;51.984;5.872;2023-03-01T14:44:06;7.20;84.40
39019;DHT22;24786;51.984;5.872;2023-03-01T14:46:38;7.20;83.50
39019;DHT22;24786;51.984;5.872;2023-03-01T14:49:29;7.10;83.50
39019;DHT22;24786;51.984;5.872;2023-03-01T14:52:07;7.10;83.10
39019;DHT22;24786;51.984;5.872;2023-03-01T14:54:43;7.10;83.20
39019;DHT22;24786;51.984;5.872;2023-03-01T14:57:17;7.10;83.30
39019;DHT22;24786;51.984;5.872;2023-03-01T14:59:43;7.10;82.80
39019;DHT22;24786;51.984;5.872;2023-03-01T15:02:15;7.10;83.00
39019;DHT22;24786;51.984;5.872;2023-03-01T15:04:45;7.00;83.10
39019;DHT22;24786;51.984;5.872;2023-03-01T15:07:13;7.10;83.30
39019;DHT22;24786;51.984;5.872;2023-03-01T15:09:40;7.00;82.70
39019;DHT22;24786;51.984;5.872;2023-03-01T15:14:56;7.00;81.70
39019;DHT22;24786;51.984;5.872;2023-03-01T15:17:38;7.00;81.40
39019;DHT22;24786;51.984;5.872;2023-03-01T15:20:13;7.00;82.20
39019;DHT22;24786;51.984;5.872;2023-03-01T15:22:44;6.90;82.10
39019;DHT22;24786;51.984;5.872;2023-03-01T15:25:22;6.90;81.90
39019;DHT22;24786;51.984;5.872;2023-03-01T15:27:50;6.90;82.60
39019;DHT22;24786;51.984;5.872;2023-03-01T15:30:26;6.90;82.70
39019;DHT22;24786;51.984;5.872;2023-03-01T15:35:50;6.80;83.20
39019;DHT22;24786;51.984;5.872;2023-03-01T15:38:34;6.80;83.00
39019;DHT22;24786;51.984;5.872;2023-03-01T15:41:19;6.80;83.20
39019;DHT22;24786;51.984;5.872;2023-03-01T15:43:46;6.80;82.70
39019;DHT22;24786;51.984;5.872;2023-03-01T15:46:33;6.70;82.70
39019;DHT22;24786;51.984;5.872;2023-03-01T15:49:05;6.70;83.00
39019;DHT22;24786;51.984;5.872;2023-03-01T15:51:37;6.70;83.60
39019;DHT22;24786;51.984;5.872;2023-03-01T15:54:19;6.70;83.80
39019;DHT22;24786;51.984;5.872;2023-03-01T15:56:45;6.70;84.10
39019;DHT22;24786;51.984;5.872;2023-03-01T15:59:11;6.60;83.90
39019;DHT22;24786;51.984;5.872;2023-03-01T16:01:38;6.70;84.40
39019;DHT22;24786;51.984;5.872;2023-03-01T16:04:04;6.60;84.20
39019;DHT22;24786;51.984;5.872;2023-03-01T16:06:29;6.60;84.40
39019;DHT22;24786;51.984;5.872;2023-03-01T16:08:55;6.60;84.10
39019;DHT22;24786;51.984;5.872;2023-03-01T16:11:21;6.60;83.20
39019;DHT22;24786;51.984;5.872;2023-03-01T16:13:47;6.60;82.70
39019;DHT22;24786;51.984;5.872;2023-03-01T16:16:14;6.50;82.30
39019;DHT22;24786;51.984;5.872;2023-03-01T16:18:45;6.50;82.30
39019;DHT22;24786;51.984;5.872;2023-03-01T16:21:23;6.50;82.20
39019;DHT22;24786;51.984;5.872;2023-03-01T16:23:51;6.40;81.70
39019;DHT22;24786;51.984;5.872;2023-03-01T16:28:57;6.40;81.10
39019;DHT22;24786;51.984;5.872;2023-03-01T16:31:26;6.30;81.50
39019;DHT22;24786;51.984;5.872;2023-03-01T16:36:49;6.30;81.50
39019;DHT22;24786;51.984;5.872;2023-03-01T16:45:49;6.20;82.90
39019;DHT22;24786;51.984;5.872;2023-03-01T16:48:21;6.10;83.40
39019;DHT22;24786;51.984;5.872;2023-03-01T16:51:07;6.10;83.70
39019;DHT22;24786;51.984;5.872;2023-03-01T16:53:34;6.00;83.80
39019;DHT22;24786;51.984;5.872;2023-03-01T16:56:42;6.00;83.90
39019;DHT22;24786;51.984;5.872;2023-03-01T16:59:13;5.90;84.30
39019;DHT22;24786;51.984;5.872;2023-03-01T17:02:13;5.90;84.60
39019;DHT22;24786;51.984;5.872;2023-03-01T17:04:42;5.80;85.10
39019;DHT22;24786;51.984;5.872;2023-03-01T17:07:10;5.70;85.40
39019;DHT22;24786;51.984;5.872;2023-03-01T17:09:37;5.70;86.00
39019;DHT22;24786;51.984;5.872;2023-03-01T17:12:04;5.60;86.20
39019;DHT22;24786;51.984;5.872;2023-03-01T17:14:44;5.50;86.50
39019;DHT22;24786;51.984;5.872;2023-03-01T17:17:10;5.50;86.40
39019;DHT22;24786;51.984;5.872;2023-03-01T17:19:37;5.50;86.80
39019;DHT22;24786;51.984;5.872;2023-03-01T17:22:39;5.40;87.30
39019;DHT22;24786;51.984;5.872;2023-03-01T17:25:08;5.30;87.80
39019;DHT22;24786;51.984;5.872;2023-03-01T17:27:35;5.20;88.10
39019;DHT22;24786;51.984;5.872;2023-03-01T17:30:01;5.10;88.30
39019;DHT22;24786;51.984;5.872;2023-03-01T17:32:27;5.00;88.80
39019;DHT22;24786;51.984;5.872;2023-03-01T17:34:52;5.00;89.20
39019;DHT22;24786;51.984;5.872;2023-03-01T17:37:18;4.90;89.60
39019;DHT22;24786;51.984;5.872;2023-03-01T17:39:43;4.80;90.00
39019;DHT22;24786;51.984;5.872;2023-03-01T17:42:09;4.80;90.20
39019;DHT22;24786;51.984;5.872;2023-03-01T17:44:34;4.70;90.30
39019;DHT22;24786;51.984;5.872;2023-03-01T17:47:01;4.60;90.50
39019;DHT22;24786;51.984;5.872;2023-03-01T17:49:28;4.50;90.70
39019;DHT22;24786;51.984;5.872;2023-03-01T17:51:53;4.50;90.90
39019;DHT22;24786;51.984;5.872;2023-03-01T17:54:19;4.40;91.10
39019;DHT22;24786;51.984;5.872;2023-03-01T17:56:44;4.40;91.40
39019;DHT22;24786;51.984;5.872;2023-03-01T17:59:10;4.40;91.50
39019;DHT22;24786;51.984;5.872;2023-03-01T18:01:36;4.30;91.80
39019;DHT22;24786;51.984;5.872;2023-03-01T18:04:02;4.30;91.90
39019;DHT22;24786;51.984;5.872;2023-03-01T18:06:28;4.30;92.20
39019;DHT22;24786;51.984;5.872;2023-03-01T18:08:53;4.20;92.30
39019;DHT22;24786;51.984;5.872;2023-03-01T18:11:21;4.20;92.40
39019;DHT22;24786;51.984;5.872;2023-03-01T18:14:05;4.20;92.50
39019;DHT22;24786;51.984;5.872;2023-03-01T18:16:31;4.10;92.60
39019;DHT22;24786;51.984;5.872;2023-03-01T18:18:59;4.10;92.80
39019;DHT22;24786;51.984;5.872;2023-03-01T18:21:24;4.00;93.00
39019;DHT22;24786;51.984;5.872;2023-03-01T18:23:50;4.00;93.20
39019;DHT22;24786;51.984;5.872;2023-03-01T18:26:16;3.90;93.30
39019;DHT22;24786;51.984;5.872;2023-03-01T18:28:44;3.90;93.50
39019;DHT22;24786;51.984;5.872;2023-03-01T18:31:14;3.90;93.60